sensor_id;sensor_type;location;lat;lon;timestamp;temperature;humidity
2945;DHT22;1482;51.398;7.128;2022-07-30T00:01:11;19.90;1.00
2945;DHT22;1482;51.398;7.128;2022-07-30T00:03:37;19.90;1.00
2945;DHT22;1482;51.398;7.128;2022-07-30T00:06:03;19.80;1.00
2945;DHT22;1482;51.398;7.128;2022-07-30T00:08:28;19.80;1.00
2945;DHT22;1482;51.398;7.128;2022-07-30T00:10:54;19.70;1.00
2945;DHT22;1482;51.398;7.128;2022-07-30T00:13:19;19.70;1.00
2945;DHT22;1482;51.398;7.128;2022-07-30T00:15:45;19.60;1.00
2945;DHT22;1482;51.398;7.128;2022-07-30T00:18:10;19.60;1.00
2945;DHT22;1482;51.398;7.128;2022-07-30T00:20:36;19.50;1.00
2945;DHT22;1482;51.398;7.128;2022-07-30T00:23:05;19.40;1.00
2945;DHT22;1482;51.398;7.128;2022-07-30T00:25:30;19.40;1.00
2945;DHT22;1482;51.398;7.128;2022-07-30T00:27:56;19.30;1.00
2945;DHT22;1482;51.398;7.128;2022-07-30T00:30:22;19.30;1.00
2945;DHT22;1482;51.398;7.128;2022-07-30T00:32:48;19.20;1.00
2945;DHT22;1482;51.398;7.128;2022-07-30T00:35:13;19.20;1.00
2945;DHT22;1482;51.398;7.128;2022-07-30T00:37:39;19.10;1.00
2945;DHT22;1482;51.398;7.128;2022-07-30T00:40:06;19.10;1.00
2945;DHT22;1482;51.398;7.128;2022-07-30T00:42:41;19.10;1.00
2945;DHT22;1482;51.398;7.128;2022-07-30T00:45:08;19.10;1.00
2945;DHT22;1482;51.398;7.128;2022-07-30T00:47:34;19.00;1.00
2945;DHT22;1482;51.398;7.128;2022-07-30T00:50:00;18.90;1.00
2945;DHT22;1482;51.398;7.128;2022-07-30T00:52:29;18.90;1.00
2945;DHT22;1482;51.398;7.128;2022-07-30T00:54:56;18.80;1.00
2945;DHT22;1482;51.398;7.128;2022-07-30T00:57:22;18.70;1.00
2945;DHT22;1482;51.398;7.128;2022-07-30T00:59:47;18.70;1.00
2945;DHT22;1482;51.398;7.128;2022-07-30T01:02:13;18.70;1.00
2945;DHT22;1482;51.398;7.128;2022-07-30T01:04:38;18.60;1.00
2945;DHT22;1482;51.398;7.128;2022-07-30T01:07:04;18.50;1.00
2945;DHT22;1482;51.398;7.128;2022-07-30T01:09:30;18.40;1.00
2945;DHT22;1482;51.398;7.128;2022-07-30T01:11:55;18.40;1.00
2945;DHT22;1482;51.398;7.128;2022-07-30T01:14:21;18.30;1.00
2945;DHT22;1482;51.398;7.128;2022-07-30T01:16:47;18.30;1.00
2945;DHT22;1482;51.398;7.128;2022-07-30T01:19:19;18.20;1.00
2945;DHT22;1482;51.398;7.128;2022-07-30T01:22:16;18.30;1.00
2945;DHT22;1482;51.398;7.128;2022-07-30T01:24:52;18.20;1.00
2945;DHT22;1482;51.398;7.128;2022-07-30T01:27:21;18.20;1.00
2945;DHT22;1482;51.398;7.128;2022-07-30T01:29:48;18.10;1.00
2945;DHT22;1482;51.398;7.128;2022-07-30T01:32:17;18.10;1.00
2945;DHT22;1482;51.398;7.128;2022-07-30T01:34:44;18.10;1.00
2945;DHT22;1482;51.398;7.128;2022-07-30T01:37:12;18.10;1.00
2945;DHT22;1482;51.398;7.128;2022-07-30T01:39:38;18.00;1.00
2945;DHT22;1482;51.398;7.128;2022-07-30T01:42:05;18.00;1.00
2945;DHT22;1482;51.398;7.128;2022-07-30T01:44:33;17.90;1.00
2945;DHT22;1482;51.398;7.128;2022-07-30T01:47:00;18.00;1.00
2945;DHT22;1482;51.398;7.128;2022-07-30T01:49:28;17.90;1.00
2945;DHT22;1482;51.398;7.128;2022-07-30T01:51:54;17.90;1.00
2945;DHT22;1482;51.398;7.128;2022-07-30T01:54:23;17.80;1.00
2945;DHT22;1482;51.398;7.128;2022-07-30T01:56:50;17.80;1.00
2945;DHT22;1482;51.398;7.128;2022-07-30T01:59:19;17.80;1.00
2945;DHT22;1482;51.398;7.128;2022-07-30T02:01:46;17.70;1.00
2945;DHT22;1482;51.398;7.128;2022-07-30T02:04:12;17.70;1.00
2945;DHT22;1482;51.398;7.128;2022-07-30T02:06:41;17.70;1.00
2945;DHT22;1482;51.398;7.128;2022-07-30T02:09:10;17.70;1.00
2945;DHT22;1482;51.398;7.128;2022-07-30T02:11:42;17.60;1.00
2945;DHT22;1482;51.398;7.128;2022-07-30T02:14:44;17.60;1.00
2945;DHT22;1482;51.398;7.128;2022-07-30T02:17:15;17.60;1.00
2945;DHT22;1482;51.398;7.128;2022-07-30T02:19:44;17.50;1.00
2945;DHT22;1482;51.398;7.128;2022-07-30T02:22:12;17.50;1.00
2945;DHT22;1482;51.398;7.128;2022-07-30T02:24:40;17.50;1.00
2945;DHT22;1482;51.398;7.128;2022-07-30T02:27:11;17.40;1.00
2945;DHT22;1482;51.398;7.128;2022-07-30T02:29:39;17.50;1.00
2945;DHT22;1482;51.398;7.128;2022-07-30T02:32:08;17.40;1.00
2945;DHT22;1482;51.398;7.128;2022-07-30T02:34:37;17.40;1.00
2945;DHT22;1482;51.398;7.128;2022-07-30T02:37:04;17.30;1.00
2945;DHT22;1482;51.398;7.128;2022-07-30T02:39:32;17.30;1.00
2945;DHT22;1482;51.398;7.128;2022-07-30T02:41:59;17.30;1.00
2945;DHT22;1482;51.398;7.128;2022-07-30T02:44:25;17.20;1.00
2945;DHT22;1482;51.398;7.128;2022-07-30T02:46:55;17.20;1.00
2945;DHT22;1482;51.398;7.128;2022-07-30T02:49:22;17.20;1.00
2945;DHT22;1482;51.398;7.128;2022-07-30T02:51:49;17.10;1.00
2945;DHT22;1482;51.398;7.128;2022-07-30T02:54:17;17.10;1.00
2945;DHT22;1482;51.398;7.128;2022-07-30T02:56:45;17.10;1.00
2945;DHT22;1482;51.398;7.128;2022-07-30T02:59:12;17.00;1.00
2945;DHT22;1482;51.398;7.128;2022-07-30T03:01:40;17.00;1.00
2945;DHT22;1482;51.398;7.128;2022-07-30T03:04:07;16.90;1.00
2945;DHT22;1482;51.398;7.128;2022-07-30T03:06:34;16.90;1.00
2945;DHT22;1482;51.398;7.128;2022-07-30T03:09:01;16.80;1.00
2945;DHT22;1482;51.398;7.128;2022-07-30T03:11:27;16.80;1.00
2945;DHT22;1482;51.398;7.128;2022-07-30T03:13:53;16.80;1.00
2945;DHT22;1482;51.398;7.128;2022-07-30T03:16:21;16.70;1.00
2945;DHT22;1482;51.398;7.128;2022-07-30T03:18:47;16.60;1.00
2945;DHT22;1482;51.398;7.128;2022-07-30T03:21:15;16.60;3.90
2945;DHT22;1482;51.398;7.128;2022-07-30T03:23:43;16.50;18.40
2945;DHT22;1482;51.398;7.128;2022-07-30T03:26:11;16.50;24.90
2945;DHT22;1482;51.398;7.128;2022-07-30T03:28:39;16.40;37.40
2945;DHT22;1482;51.398;7.128;2022-07-30T03:31:05;16.40;57.00
2945;DHT22;1482;51.398;7.128;2022-07-30T03:33:33;16.40;63.90
2945;DHT22;1482;51.398;7.128;2022-07-30T03:35:59;16.40;91.20
2945;DHT22;1482;51.398;7.128;2022-07-30T03:38:26;16.40;99.90
2945;DHT22;1482;51.398;7.128;2022-07-30T03:40:53;16.30;99.90
2945;DHT22;1482;51.398;7.128;2022-07-30T03:43:19;16.30;99.90
2945;DHT22;1482;51.398;7.128;2022-07-30T03:45:46;16.30;99.90
2945;DHT22;1482;51.398;7.128;2022-07-30T03:48:12;16.30;99.90
2945;DHT22;1482;51.398;7.128;2022-07-30T03:50:41;16.30;99.90
2945;DHT22;1482;51.398;7.128;2022-07-30T03:53:08;16.20;99.90
2945;DHT22;1482;51.398;7.128;2022-07-30T03:55:35;16.20;99.90
2945;DHT22;1482;51.398;7.128;2022-07-30T03:58:01;16.20;99.90
2945;DHT22;1482;51.398;7.128;2022-07-30T04:00:28;16.20;99.90
2945;DHT22;1482;51.398;7.128;2022-07-30T04:02:54;16.10;99.90
2945;DHT22;1482;51.398;7.128;2022-07-30T04:05:20;16.10;99.90
2945;DHT22;1482;51.398;7.128;2022-07-30T04:07:46;16.10;99.90
2945;DHT22;1482;51.398;7.128;2022-07-30T04:10:12;16.20;99.90
2945;DHT22;1482;51.398;7.128;2022-07-30T04:12:38;16.10;99.90
2945;DHT22;1482;51.398;7.128;2022-07-30T04:15:04;16.20;99.90
2945;DHT22;1482;51.398;7.128;2022-07-30T04:17:43;16.20;99.90
2945;DHT22;1482;51.398;7.128;2022-07-30T04:20:16;16.20;99.90
2945;DHT22;1482;51.398;7.128;2022-07-30T04:22:45;16.20;99.90
2945;DHT22;1482;51.398;7.128;2022-07-30T04:25:12;16.20;99.90
2945;DHT22;1482;51.398;7.128;2022-07-30T04:27:39;16.30;99.90
2945;DHT22;1482;51.398;7.128;2022-07-30T04:30:05;16.30;99.90
2945;DHT22;1482;51.398;7.128;2022-07-30T04:32:32;16.30;99.90
2945;DHT22;1482;51.398;7.128;2022-07-30T04:34:58;16.40;99.90
2945;DHT22;1482;51.398;7.128;2022-07-30T04:37:25;16.50;99.90
2945;DHT22;1482;51.398;7.128;2022-07-30T04:39:51;16.90;99.90
2945;DHT22;1482;51.398;7.128;2022-07-30T04:42:26;17.60;99.90
2945;DHT22;1482;51.398;7.128;2022-07-30T04:44:52;18.60;99.90
2945;DHT22;1482;51.398;7.128;2022-07-30T04:47:18;19.50;1.00
2945;DHT22;1482;51.398;7.128;2022-07-30T04:49:44;20.40;1.00
2945;DHT22;1482;51.398;7.128;2022-07-30T04:52:11;21.30;1.00
2945;DHT22;1482;51.398;7.128;2022-07-30T04:54:58;22.20;1.00
2945;DHT22;1482;51.398;7.128;2022-07-30T04:57:25;23.20;1.00
2945;DHT22;1482;51.398;7.128;2022-07-30T04:59:52;24.10;1.00
2945;DHT22;1482;51.398;7.128;2022-07-30T05:02:19;25.00;1.00
2945;DHT22;1482;51.398;7.128;2022-07-30T05:04:48;25.70;1.00
2945;DHT22;1482;51.398;7.128;2022-07-30T05:07:14;26.00;1.00
2945;DHT22;1482;51.398;7.128;2022-07-30T05:09:40;25.70;1.00
2945;DHT22;1482;51.398;7.128;2022-07-30T05:12:06;25.20;1.00
2945;DHT22;1482;51.398;7.128;2022-07-30T05:14:32;24.60;1.00
2945;DHT22;1482;51.398;7.128;2022-07-30T05:16:58;24.10;1.00
2945;DHT22;1482;51.398;7.128;2022-07-30T05:19:23;23.60;1.00
2945;DHT22;1482;51.398;7.128;2022-07-30T05:21:49;23.10;1.00
2945;DHT22;1482;51.398;7.128;2022-07-30T05:24:15;22.70;1.00
2945;DHT22;1482;51.398;7.128;2022-07-30T05:26:41;22.30;1.00
2945;DHT22;1482;51.398;7.128;2022-07-30T05:29:06;22.10;1.00
2945;DHT22;1482;51.398;7.128;2022-07-30T05:31:32;22.00;1.00
2945;DHT22;1482;51.398;7.128;2022-07-30T05:33:58;22.20;1.00
2945;DHT22;1482;51.398;7.128;2022-07-30T05:36:23;22.20;1.00
2945;DHT22;1482;51.398;7.128;2022-07-30T05:38:49;22.40;1.00
2945;DHT22;1482;51.398;7.128;2022-07-30T05:41:15;23.00;1.00
2945;DHT22;1482;51.398;7.128;2022-07-30T05:43:41;24.10;1.00
2945;DHT22;1482;51.398;7.128;2022-07-30T05:46:06;25.70;1.00
2945;DHT22;1482;51.398;7.128;2022-07-30T05:48:32;27.60;1.00
2945;DHT22;1482;51.398;7.128;2022-07-30T05:51:00;29.30;1.00
2945;DHT22;1482;51.398;7.128;2022-07-30T05:53:26;30.40;1.00
2945;DHT22;1482;51.398;7.128;2022-07-30T05:55:52;31.60;1.00
2945;DHT22;1482;51.398;7.128;2022-07-30T05:58:17;32.70;1.00
2945;DHT22;1482;51.398;7.128;2022-07-30T06:00:43;33.90;1.00
2945;DHT22;1482;51.398;7.128;2022-07-30T06:03:09;34.70;1.00
2945;DHT22;1482;51.398;7.128;2022-07-30T06:05:34;35.90;1.00
2945;DHT22;1482;51.398;7.128;2022-07-30T06:08:00;36.80;1.00
2945;DHT22;1482;51.398;7.128;2022-07-30T06:10:25;37.80;1.00
2945;DHT22;1482;51.398;7.128;2022-07-30T06:12:51;38.50;1.00
2945;DHT22;1482;51.398;7.128;2022-07-30T06:15:17;39.30;1.00
2945;DHT22;1482;51.398;7.128;2022-07-30T06:17:44;40.10;1.00
2945;DHT22;1482;51.398;7.128;2022-07-30T06:20:11;40.30;1.00
2945;DHT22;1482;51.398;7.128;2022-07-30T06:22:37;39.80;1.00
2945;DHT22;1482;51.398;7.128;2022-07-30T06:25:03;38.70;1.00
2945;DHT22;1482;51.398;7.128;2022-07-30T06:27:29;37.10;1.00
2945;DHT22;1482;51.398;7.128;2022-07-30T06:29:54;35.90;1.00
2945;DHT22;1482;51.398;7.128;2022-07-30T06:32:20;34.70;1.00
2945;DHT22;1482;51.398;7.128;2022-07-30T06:34:45;33.50;1.00
2945;DHT22;1482;51.398;7.128;2022-07-30T06:37:11;32.20;1.00
2945;DHT22;1482;51.398;7.128;2022-07-30T06:39:36;30.80;1.00
2945;DHT22;1482;51.398;7.128;2022-07-30T06:42:02;29.40;1.00
2945;DHT22;1482;51.398;7.128;2022-07-30T06:44:28;28.00;1.00
2945;DHT22;1482;51.398;7.128;2022-07-30T06:46:54;27.00;1.00
2945;DHT22;1482;51.398;7.128;2022-07-30T06:49:19;26.10;1.00
2945;DHT22;1482;51.398;7.128;2022-07-30T06:51:45;25.40;1.00
2945;DHT22;1482;51.398;7.128;2022-07-30T06:54:11;24.90;1.00
2945;DHT22;1482;51.398;7.128;2022-07-30T06:56:36;24.40;1.00
2945;DHT22;1482;51.398;7.128;2022-07-30T06:59:02;24.00;1.00
2945;DHT22;1482;51.398;7.128;2022-07-30T07:01:27;23.80;1.00
2945;DHT22;1482;51.398;7.128;2022-07-30T07:03:53;23.50;1.00
2945;DHT22;1482;51.398;7.128;2022-07-30T07:06:19;23.40;1.00
2945;DHT22;1482;51.398;7.128;2022-07-30T07:08:44;23.10;1.00
2945;DHT22;1482;51.398;7.128;2022-07-30T07:11:10;23.00;1.00
2945;DHT22;1482;51.398;7.128;2022-07-30T07:13:35;23.10;1.00
2945;DHT22;1482;51.398;7.128;2022-07-30T07:16:01;23.00;1.00
2945;DHT22;1482;51.398;7.128;2022-07-30T07:18:27;23.00;1.00
2945;DHT22;1482;51.398;7.128;2022-07-30T07:20:52;23.00;1.00
2945;DHT22;1482;51.398;7.128;2022-07-30T07:23:18;22.80;1.00
2945;DHT22;1482;51.398;7.128;2022-07-30T07:25:43;22.70;1.00
2945;DHT22;1482;51.398;7.128;2022-07-30T07:28:09;22.40;1.00
2945;DHT22;1482;51.398;7.128;2022-07-30T07:30:34;22.30;1.00
2945;DHT22;1482;51.398;7.128;2022-07-30T07:33:00;22.10;1.00
2945;DHT22;1482;51.398;7.128;2022-07-30T07:35:26;22.10;1.00
2945;DHT22;1482;51.398;7.128;2022-07-30T07:37:51;22.30;1.00
2945;DHT22;1482;51.398;7.128;2022-07-30T07:40:17;22.50;1.00
2945;DHT22;1482;51.398;7.128;2022-07-30T07:42:42;22.60;1.00
2945;DHT22;1482;51.398;7.128;2022-07-30T07:45:08;22.30;1.00
2945;DHT22;1482;51.398;7.128;2022-07-30T07:47:47;22.30;1.00
2945;DHT22;1482;51.398;7.128;2022-07-30T07:50:15;22.40;1.00
2945;DHT22;1482;51.398;7.128;2022-07-30T07:52:41;22.50;1.00
2945;DHT22;1482;51.398;7.128;2022-07-30T07:55:07;22.80;1.00
2945;DHT22;1482;51.398;7.128;2022-07-30T07:57:39;22.80;1.00
2945;DHT22;1482;51.398;7.128;2022-07-30T08:00:07;23.10;1.00
2945;DHT22;1482;51.398;7.128;2022-07-30T08:02:33;23.30;1.00
2945;DHT22;1482;51.398;7.128;2022-07-30T08:04:58;23.50;1.00
2945;DHT22;1482;51.398;7.128;2022-07-30T08:07:24;23.90;1.00
2945;DHT22;1482;51.398;7.128;2022-07-30T08:09:49;24.20;1.00
2945;DHT22;1482;51.398;7.128;2022-07-30T08:12:15;24.80;1.00
2945;DHT22;1482;51.398;7.128;2022-07-30T08:14:41;26.90;1.00
2945;DHT22;1482;51.398;7.128;2022-07-30T08:17:06;29.40;1.00
2945;DHT22;1482;51.398;7.128;2022-07-30T08:19:32;32.60;1.00
2945;DHT22;1482;51.398;7.128;2022-07-30T08:21:58;34.00;1.00
2945;DHT22;1482;51.398;7.128;2022-07-30T08:24:24;35.30;1.00
2945;DHT22;1482;51.398;7.128;2022-07-30T08:26:50;37.50;1.00
2945;DHT22;1482;51.398;7.128;2022-07-30T08:29:15;39.70;1.00
2945;DHT22;1482;51.398;7.128;2022-07-30T08:31:41;40.70;1.00
2945;DHT22;1482;51.398;7.128;2022-07-30T08:34:07;41.70;1.00
2945;DHT22;1482;51.398;7.128;2022-07-30T08:36:33;41.30;1.00
2945;DHT22;1482;51.398;7.128;2022-07-30T08:38:58;39.40;1.00
2945;DHT22;1482;51.398;7.128;2022-07-30T08:41:25;37.50;1.00
2945;DHT22;1482;51.398;7.128;2022-07-30T08:43:51;35.90;1.00
2945;DHT22;1482;51.398;7.128;2022-07-30T08:46:17;34.30;1.00
2945;DHT22;1482;51.398;7.128;2022-07-30T08:48:44;32.80;1.00
2945;DHT22;1482;51.398;7.128;2022-07-30T08:51:11;31.70;1.00
2945;DHT22;1482;51.398;7.128;2022-07-30T08:53:37;30.70;1.00
2945;DHT22;1482;51.398;7.128;2022-07-30T08:56:03;29.90;1.00
2945;DHT22;1482;51.398;7.128;2022-07-30T08:58:31;29.30;1.00
2945;DHT22;1482;51.398;7.128;2022-07-30T09:00:58;28.80;1.00
2945;DHT22;1482;51.398;7.128;2022-07-30T09:03:23;28.50;1.00
2945;DHT22;1482;51.398;7.128;2022-07-30T09:05:49;28.20;1.00
2945;DHT22;1482;51.398;7.128;2022-07-30T09:08:15;28.00;1.00
2945;DHT22;1482;51.398;7.128;2022-07-30T09:10:40;27.90;1.00
2945;DHT22;1482;51.398;7.128;2022-07-30T09:13:28;27.90;1.00
2945;DHT22;1482;51.398;7.128;2022-07-30T09:15:54;27.90;1.00
2945;DHT22;1482;51.398;7.128;2022-07-30T09:18:35;27.90;1.00
2945;DHT22;1482;51.398;7.128;2022-07-30T09:21:16;28.00;1.00
2945;DHT22;1482;51.398;7.128;2022-07-30T09:24:06;28.20;1.00
2945;DHT22;1482;51.398;7.128;2022-07-30T09:29:21;28.40;1.00
2945;DHT22;1482;51.398;7.128;2022-07-30T09:32:03;28.40;1.00
2945;DHT22;1482;51.398;7.128;2022-07-30T09:34:31;28.30;1.00
2945;DHT22;1482;51.398;7.128;2022-07-30T09:37:19;28.40;1.00
2945;DHT22;1482;51.398;7.128;2022-07-30T09:39:44;28.50;1.00
2945;DHT22;1482;51.398;7.128;2022-07-30T09:42:18;28.60;1.00
2945;DHT22;1482;51.398;7.128;2022-07-30T09:44:45;28.60;1.00
2945;DHT22;1482;51.398;7.128;2022-07-30T09:47:32;28.80;1.00
2945;DHT22;1482;51.398;7.128;2022-07-30T09:50:04;28.90;1.00
2945;DHT22;1482;51.398;7.128;2022-07-30T09:52:30;29.00;1.00
2945;DHT22;1482;51.398;7.128;2022-07-30T09:54:55;28.90;1.00
2945;DHT22;1482;51.398;7.128;2022-07-30T09:57:21;28.80;1.00
2945;DHT22;1482;51.398;7.128;2022-07-30T09:59:47;28.80;1.00
2945;DHT22;1482;51.398;7.128;2022-07-30T10:02:12;28.70;1.00
2945;DHT22;1482;51.398;7.128;2022-07-30T10:04:38;28.60;1.00
2945;DHT22;1482;51.398;7.128;2022-07-30T10:07:03;28.70;1.00
2945;DHT22;1482;51.398;7.128;2022-07-30T10:09:31;28.90;1.00
2945;DHT22;1482;51.398;7.128;2022-07-30T10:12:00;28.90;1.00
2945;DHT22;1482;51.398;7.128;2022-07-30T10:14:29;28.70;1.00
2945;DHT22;1482;51.398;7.128;2022-07-30T10:16:57;28.60;1.00
2945;DHT22;1482;51.398;7.128;2022-07-30T10:19:24;28.60;1.00
2945;DHT22;1482;51.398;7.128;2022-07-30T10:21:50;28.70;1.00
2945;DHT22;1482;51.398;7.128;2022-07-30T10:24:18;28.80;1.00
2945;DHT22;1482;51.398;7.128;2022-07-30T10:26:48;29.00;1.00
2945;DHT22;1482;51.398;7.128;2022-07-30T10:29:15;29.10;1.00
2945;DHT22;1482;51.398;7.128;2022-07-30T10:31:48;29.40;1.00
2945;DHT22;1482;51.398;7.128;2022-07-30T10:34:15;29.60;1.00
2945;DHT22;1482;51.398;7.128;2022-07-30T10:36:51;29.60;1.00
2945;DHT22;1482;51.398;7.128;2022-07-30T10:39:37;29.80;1.00
2945;DHT22;1482;51.398;7.128;2022-07-30T10:47:13;29.80;1.00
2945;DHT22;1482;51.398;7.128;2022-07-30T10:49:39;29.90;1.00
2945;DHT22;1482;51.398;7.128;2022-07-30T10:52:05;29.50;1.00
2945;DHT22;1482;51.398;7.128;2022-07-30T10:54:38;29.60;1.00
2945;DHT22;1482;51.398;7.128;2022-07-30T10:57:19;29.80;1.00
2945;DHT22;1482;51.398;7.128;2022-07-30T11:02:15;30.10;1.00
2945;DHT22;1482;51.398;7.128;2022-07-30T11:04:41;30.10;1.00
2945;DHT22;1482;51.398;7.128;2022-07-30T11:09:59;30.10;1.00
2945;DHT22;1482;51.398;7.128;2022-07-30T11:12:57;30.00;1.00
2945;DHT22;1482;51.398;7.128;2022-07-30T11:15:23;29.90;1.00
2945;DHT22;1482;51.398;7.128;2022-07-30T11:18:08;29.70;1.00
2945;DHT22;1482;51.398;7.128;2022-07-30T11:20:36;29.70;1.00
2945;DHT22;1482;51.398;7.128;2022-07-30T11:23:36;29.70;1.00
2945;DHT22;1482;51.398;7.128;2022-07-30T11:26:03;29.80;1.00
2945;DHT22;1482;51.398;7.128;2022-07-30T11:28:41;29.80;1.00
2945;DHT22;1482;51.398;7.128;2022-07-30T11:31:36;30.00;1.00
2945;DHT22;1482;51.398;7.128;2022-07-30T11:37:16;30.30;1.00
2945;DHT22;1482;51.398;7.128;2022-07-30T11:42:28;30.50;1.00
2945;DHT22;1482;51.398;7.128;2022-07-30T11:47:42;30.50;1.00
2945;DHT22;1482;51.398;7.128;2022-07-30T11:50:26;30.40;1.00
2945;DHT22;1482;51.398;7.128;2022-07-30T11:52:54;30.50;1.00
2945;DHT22;1482;51.398;7.128;2022-07-30T11:55:31;30.50;1.00
2945;DHT22;1482;51.398;7.128;2022-07-30T11:57:59;30.50;1.00
2945;DHT22;1482;51.398;7.128;2022-07-30T12:00:33;30.60;1.00
2945;DHT22;1482;51.398;7.128;2022-07-30T12:02:59;30.60;1.00
2945;DHT22;1482;51.398;7.128;2022-07-30T12:05:26;30.60;1.00
2945;DHT22;1482;51.398;7.128;2022-07-30T12:07:57;30.50;1.00
2945;DHT22;1482;51.398;7.128;2022-07-30T12:10:23;30.60;1.00
2945;DHT22;1482;51.398;7.128;2022-07-30T12:12:49;30.60;1.00
2945;DHT22;1482;51.398;7.128;2022-07-30T12:15:32;30.70;1.00
2945;DHT22;1482;51.398;7.128;2022-07-30T12:17:58;30.80;1.00
2945;DHT22;1482;51.398;7.128;2022-07-30T12:20:26;30.70;1.00
2945;DHT22;1482;51.398;7.128;2022-07-30T12:22:52;30.80;1.00
2945;DHT22;1482;51.398;7.128;2022-07-30T12:25:18;30.70;1.00
2945;DHT22;1482;51.398;7.128;2022-07-30T12:27:47;30.70;1.00
2945;DHT22;1482;51.398;7.128;2022-07-30T12:30:15;30.70;1.00
2945;DHT22;1482;51.398;7.128;2022-07-30T12:32:42;30.30;1.00
2945;DHT22;1482;51.398;7.128;2022-07-30T12:35:09;30.30;1.00
2945;DHT22;1482;51.398;7.128;2022-07-30T12:37:34;30.40;1.00
2945;DHT22;1482;51.398;7.128;2022-07-30T12:40:05;30.50;1.00
2945;DHT22;1482;51.398;7.128;2022-07-30T12:42:31;30.60;1.00
2945;DHT22;1482;51.398;7.128;2022-07-30T12:44:57;30.60;1.00
2945;DHT22;1482;51.398;7.128;2022-07-30T12:47:27;30.40;1.00
2945;DHT22;1482;51.398;7.128;2022-07-30T12:49:55;30.30;1.00
2945;DHT22;1482;51.398;7.128;2022-07-30T12:55:04;30.10;1.00
2945;DHT22;1482;51.398;7.128;2022-07-30T12:57:50;29.80;1.00
2945;DHT22;1482;51.398;7.128;2022-07-30T13:00:16;29.90;1.00
2945;DHT22;1482;51.398;7.128;2022-07-30T13:02:41;30.00;1.00
2945;DHT22;1482;51.398;7.128;2022-07-30T13:05:07;30.00;1.00
2945;DHT22;1482;51.398;7.128;2022-07-30T13:07:33;30.00;1.00
2945;DHT22;1482;51.398;7.128;2022-07-30T13:10:11;29.90;1.00
2945;DHT22;1482;51.398;7.128;2022-07-30T13:12:37;29.90;1.00
2945;DHT22;1482;51.398;7.128;2022-07-30T13:15:04;29.80;1.00
2945;DHT22;1482;51.398;7.128;2022-07-30T13:17:30;29.80;1.00
2945;DHT22;1482;51.398;7.128;2022-07-30T13:19:55;29.70;1.00
2945;DHT22;1482;51.398;7.128;2022-07-30T13:22:21;29.60;1.00
2945;DHT22;1482;51.398;7.128;2022-07-30T13:24:47;29.60;1.00
2945;DHT22;1482;51.398;7.128;2022-07-30T13:27:12;29.60;1.00
2945;DHT22;1482;51.398;7.128;2022-07-30T13:29:41;29.60;1.00
2945;DHT22;1482;51.398;7.128;2022-07-30T13:32:06;29.60;1.00
2945;DHT22;1482;51.398;7.128;2022-07-30T13:34:32;29.60;1.00
2945;DHT22;1482;51.398;7.128;2022-07-30T13:36:57;29.50;1.00
2945;DHT22;1482;51.398;7.128;2022-07-30T13:39:23;29.60;1.00
2945;DHT22;1482;51.398;7.128;2022-07-30T13:41:48;29.70;1.00
2945;DHT22;1482;51.398;7.128;2022-07-30T13:44:14;29.60;1.00
2945;DHT22;1482;51.398;7.128;2022-07-30T13:46:40;29.60;1.00
2945;DHT22;1482;51.398;7.128;2022-07-30T13:49:06;29.70;1.00
2945;DHT22;1482;51.398;7.128;2022-07-30T13:51:31;29.80;1.00
2945;DHT22;1482;51.398;7.128;2022-07-30T13:53:57;30.00;1.00
2945;DHT22;1482;51.398;7.128;2022-07-30T13:56:22;30.10;1.00
2945;DHT22;1482;51.398;7.128;2022-07-30T13:58:48;30.20;1.00
2945;DHT22;1482;51.398;7.128;2022-07-30T14:01:14;30.20;1.00
2945;DHT22;1482;51.398;7.128;2022-07-30T14:03:39;30.20;1.00
2945;DHT22;1482;51.398;7.128;2022-07-30T14:06:05;30.30;1.00
2945;DHT22;1482;51.398;7.128;2022-07-30T14:08:31;30.20;1.00
2945;DHT22;1482;51.398;7.128;2022-07-30T14:10:57;30.10;1.00
2945;DHT22;1482;51.398;7.128;2022-07-30T14:13:23;30.10;1.00
2945;DHT22;1482;51.398;7.128;2022-07-30T14:15:49;30.10;1.00
2945;DHT22;1482;51.398;7.128;2022-07-30T14:18:15;30.00;1.00
2945;DHT22;1482;51.398;7.128;2022-07-30T14:20:41;30.10;1.00
2945;DHT22;1482;51.398;7.128;2022-07-30T14:23:06;30.10;1.00
2945;DHT22;1482;51.398;7.128;2022-07-30T14:25:32;30.10;1.00
2945;DHT22;1482;51.398;7.128;2022-07-30T14:27:57;30.10;1.00
2945;DHT22;1482;51.398;7.128;2022-07-30T14:30:23;29.90;1.00
2945;DHT22;1482;51.398;7.128;2022-07-30T14:32:49;29.90;1.00
2945;DHT22;1482;51.398;7.128;2022-07-30T14:35:15;29.80;1.00
2945;DHT22;1482;51.398;7.128;2022-07-30T14:37:40;29.80;1.00
2945;DHT22;1482;51.398;7.128;2022-07-30T14:40:08;29.80;1.00
2945;DHT22;1482;51.398;7.128;2022-07-30T14:42:34;29.70;1.00
2945;DHT22;1482;51.398;7.128;2022-07-30T14:45:04;29.60;1.00
2945;DHT22;1482;51.398;7.128;2022-07-30T14:47:30;29.60;1.00
2945;DHT22;1482;51.398;7.128;2022-07-30T14:49:56;29.50;1.00
2945;DHT22;1482;51.398;7.128;2022-07-30T14:52:21;29.50;1.00
2945;DHT22;1482;51.398;7.128;2022-07-30T14:54:47;29.50;1.00
2945;DHT22;1482;51.398;7.128;2022-07-30T14:57:12;29.50;1.00
2945;DHT22;1482;51.398;7.128;2022-07-30T14:59:38;29.40;1.00
2945;DHT22;1482;51.398;7.128;2022-07-30T15:02:04;29.30;1.00
2945;DHT22;1482;51.398;7.128;2022-07-30T15:04:29;29.30;1.00
2945;DHT22;1482;51.398;7.128;2022-07-30T15:06:55;29.10;1.00
2945;DHT22;1482;51.398;7.128;2022-07-30T15:09:20;29.20;1.00
2945;DHT22;1482;51.398;7.128;2022-07-30T15:11:46;29.10;1.00
2945;DHT22;1482;51.398;7.128;2022-07-30T15:14:12;29.20;1.00
2945;DHT22;1482;51.398;7.128;2022-07-30T15:16:38;29.10;1.00
2945;DHT22;1482;51.398;7.128;2022-07-30T15:19:03;29.10;1.00
2945;DHT22;1482;51.398;7.128;2022-07-30T15:21:29;29.00;1.00
2945;DHT22;1482;51.398;7.128;2022-07-30T15:23:54;29.00;1.00
2945;DHT22;1482;51.398;7.128;2022-07-30T15:26:20;29.00;1.00
2945;DHT22;1482;51.398;7.128;2022-07-30T15:28:46;29.10;1.00
2945;DHT22;1482;51.398;7.128;2022-07-30T15:31:11;29.10;1.00
2945;DHT22;1482;51.398;7.128;2022-07-30T15:33:37;29.00;1.00
2945;DHT22;1482;51.398;7.128;2022-07-30T15:36:08;28.90;1.00
2945;DHT22;1482;51.398;7.128;2022-07-30T15:38:34;28.90;1.00
2945;DHT22;1482;51.398;7.128;2022-07-30T15:41:00;28.80;1.00
2945;DHT22;1482;51.398;7.128;2022-07-30T15:43:26;28.70;1.00
2945;DHT22;1482;51.398;7.128;2022-07-30T15:45:51;28.60;1.00
2945;DHT22;1482;51.398;7.128;2022-07-30T15:48:17;28.40;1.00
2945;DHT22;1482;51.398;7.128;2022-07-30T15:50:42;28.30;1.00
2945;DHT22;1482;51.398;7.128;2022-07-30T15:53:08;28.30;1.00
2945;DHT22;1482;51.398;7.128;2022-07-30T15:55:35;28.20;1.00
2945;DHT22;1482;51.398;7.128;2022-07-30T15:58:01;28.30;1.00
2945;DHT22;1482;51.398;7.128;2022-07-30T16:00:26;28.20;1.00
2945;DHT22;1482;51.398;7.128;2022-07-30T16:02:52;28.20;1.00
2945;DHT22;1482;51.398;7.128;2022-07-30T16:05:20;28.20;1.00
2945;DHT22;1482;51.398;7.128;2022-07-30T16:07:46;28.10;1.00
2945;DHT22;1482;51.398;7.128;2022-07-30T16:10:12;28.00;1.00
2945;DHT22;1482;51.398;7.128;2022-07-30T16:12:38;27.90;1.00
2945;DHT22;1482;51.398;7.128;2022-07-30T16:15:04;27.80;1.00
2945;DHT22;1482;51.398;7.128;2022-07-30T16:17:30;27.70;1.00
2945;DHT22;1482;51.398;7.128;2022-07-30T16:19:56;27.70;1.00
2945;DHT22;1482;51.398;7.128;2022-07-30T16:22:21;27.60;1.00
2945;DHT22;1482;51.398;7.128;2022-07-30T16:24:47;27.40;1.00
2945;DHT22;1482;51.398;7.128;2022-07-30T16:27:13;27.40;1.00
2945;DHT22;1482;51.398;7.128;2022-07-30T16:29:38;27.20;1.00
2945;DHT22;1482;51.398;7.128;2022-07-30T16:32:04;27.20;1.00
2945;DHT22;1482;51.398;7.128;2022-07-30T16:34:30;27.10;1.00
2945;DHT22;1482;51.398;7.128;2022-07-30T16:36:57;27.00;1.00
2945;DHT22;1482;51.398;7.128;2022-07-30T16:39:22;27.00;1.00
2945;DHT22;1482;51.398;7.128;2022-07-30T16:41:48;26.90;1.00
2945;DHT22;1482;51.398;7.128;2022-07-30T16:44:13;27.00;1.00